KSSF - San Antonio/Stinson, TX, US

Issued at 2320 UTC 31 Oct 2020
Updated at 0041 UTC 01 Nov 2020
Potential Impact None Slight Moderate High
Time2353Z 01/01Z 01/02Z 01/03Z 01/04Z 01/05Z 01/06Z 01/07Z 01/08Z 01/09Z 01/10Z 01/11Z 01/12Z 01/13Z>>
Type OBS PRVL PRVL PRVL PRVL PRVL PRVL PRVL PRVL PRVL PRVL PRVL PRVL PRVL
VIS 10 >6 >6 >6 >6 >6 >6 >6 >6 >6 >6 >6 >6 >6
CIG -- -- -- -- -- -- -- -- -- -- -- -- -- --
Cover CLR FEW FEW FEW FEW FEW FEW FEW FEW FEW FEW FEW FEW FEW
FltCat VFR VFR VFR VFR VFR VFR VFR VFR VFR VFR VFR VFR VFR VFR
WX -- -- -- -- -- -- -- -- -- -- -- -- -- --
WDir 160 150 150 150 150 150 150 150 150 150 150 150 150 150
WSpd 3 5 5 5 5 5 5 5 5 5 5 5 5 5
WGst -- -- -- -- -- -- -- -- -- -- -- -- -- --
Raw TAF
KSSF 312320Z 0100/0124 15005KT P6SM FEW250
  FM011600 02015KT P6SM SCT250


Raw METAR
KSSF 312353Z 16003KT 10SM CLR 21/05 A3009 RMK AO2 SLP187 T02110050 10250 20206 55001 $
KSSF 312253Z 18005KT 10SM CLR 24/05 A3007 RMK AO2 SLP183 T02390050 $
KSSF 312153Z 21004KT 10SM CLR 24/04 A3008 RMK AO2 SLP182 T02440039 $

METAR Board
Radar Display
Forecast Discussion
For situational awareness. Not to be used for flight planning purposes.